Time;durP1;ratioP1;P1;durP2;ratioP2;P2;SDS_P1;SDS_P2;PMS_P1;PMS_P2;Temp;Humidity;BMP_temperature;BMP_pressure;BME280_temperature;BME280_humidity;BME280_pressure;Samples;Min_cycle;Max_cycle;Signal;HPM_P1;HPM_P2
2022/07/17 00:00:53;;;;;;;;;;;;;;;23.61;45.92;98889.25;2100546;28;20088;-76
2022/07/17 00:01:55;;;;;;;;;;;;;;;23.59;45.93;98886.75;2102675;28;19961;-75
2022/07/17 00:02:55;;;;;;;;;;;;;;;23.60;45.79;98887.59;2099542;28;19924;-75
2022/07/17 00:03:57;;;;;;;;;;;;;;;23.58;45.80;98890.53;2105727;28;19976;-75
2022/07/17 00:04:59;;;;;;;;;;;;;;;23.62;45.82;98893.59;2100100;28;20338;-75
2022/07/17 00:06:01;;;;;;;;;;;;;;;23.62;45.83;98886.31;2106021;28;20433;-75
2022/07/17 00:07:03;;;;;;;;;;;;;;;23.56;45.97;98881.78;2099974;28;19946;-76
2022/07/17 00:08:06;;;;;;;;;;;;;;;23.60;46.01;98893.00;2099952;28;19932;-76
2022/07/17 00:09:06;;;;;;;;;;;;;;;23.61;45.93;98889.25;2098316;28;19972;-75
2022/07/17 00:10:08;;;;;;;;;;;;;;;23.63;45.87;98897.97;2101402;28;19984;-75
2022/07/17 00:11:09;;;;;;;;;;;;;;;23.58;45.75;98897.81;2101021;28;20690;-75
2022/07/17 00:12:11;;;;;;;;;;;;;;;23.58;45.79;98898.66;2102776;28;19951;-75
2022/07/17 00:13:11;;;;;;;;;;;;;;;23.54;45.94;98893.91;2100286;28;20373;-75
2022/07/17 00:14:13;;;;;;;;;;;;;;;23.49;46.05;98894.63;2031803;28;1958631;-75
2022/07/17 00:15:13;;;;;;;;;;;;;;;23.47;46.17;98894.00;2100128;28;19938;-75
2022/07/17 00:16:17;;;;;;;;;;;;;;;23.49;45.91;98899.22;2097732;28;19924;-76
2022/07/17 00:17:18;;;;;;;;;;;;;;;23.48;45.91;98900.25;2099151;28;20668;-75
2022/07/17 00:18:19;;;;;;;;;;;;;;;23.51;45.73;98899.78;2100724;28;19983;-76
2022/07/17 00:19:20;;;;;;;;;;;;;;;23.50;45.62;98906.25;2100411;28;20321;-76
2022/07/17 00:20:25;;;;;;;;;;;;;;;23.53;45.47;98903.09;2100324;28;19938;-75
2022/07/17 00:21:25;;;;;;;;;;;;;;;23.51;45.47;98895.19;2098739;28;19927;-75
2022/07/17 00:22:27;;;;;;;;;;;;;;;23.49;45.76;98899.22;2101440;28;20115;-75
2022/07/17 00:23:29;;;;;;;;;;;;;;;23.51;45.52;98900.59;2096550;28;20287;-75
2022/07/17 00:24:29;;;;;;;;;;;;;;;23.52;45.48;98901.47;2103874;28;20233;-75
2022/07/17 00:25:32;;;;;;;;;;;;;;;23.45;45.67;98892.59;2093322;28;19923;-75
2022/07/17 00:26:32;;;;;;;;;;;;;;;23.47;45.48;98904.03;2103413;28;19928;-76
2022/07/17 00:27:34;;;;;;;;;;;;;;;23.47;45.49;98898.59;2097964;28;20023;-76
2022/07/17 00:28:35;;;;;;;;;;;;;;;23.48;45.40;98901.06;2100085;28;19939;-76
2022/07/17 00:29:36;;;;;;;;;;;;;;;23.48;45.28;98898.34;2100369;28;20425;-75
2022/07/17 00:30:38;;;;;;;;;;;;;;;23.42;45.47;98891.97;2100949;28;19924;-74
2022/07/17 00:31:39;;;;;;;;;;;;;;;23.43;45.31;98898.25;2102319;28;19935;-74
2022/07/17 00:32:40;;;;;;;;;;;;;;;23.45;45.43;98896.13;2102895;28;19976;-75
2022/07/17 00:33:42;;;;;;;;;;;;;;;23.41;45.51;98898.47;2104413;28;19928;-76
2022/07/17 00:34:42;;;;;;;;;;;;;;;23.44;45.26;98894.47;2106225;28;19932;-75
2022/07/17 00:35:46;;;;;;;;;;;;;;;23.37;45.35;98891.88;2103973;28;19981;-75
2022/07/17 00:36:46;;;;;;;;;;;;;;;23.35;45.40;98893.97;2098938;28;20538;-76
2022/07/17 00:37:48;;;;;;;;;;;;;;;23.27;45.60;98896.97;2100780;28;19931;-75
2022/07/17 00:38:49;;;;;;;;;;;;;;;23.28;45.54;98900.50;2095414;28;19923;-75
2022/07/17 00:39:51;;;;;;;;;;;;;;;23.30;45.49;98883.00;2103602;28;19927;-75
2022/07/17 00:40:53;;;;;;;;;;;;;;;23.31;45.60;98887.34;2106116;28;19935;-75
2022/07/17 00:41:54;;;;;;;;;;;;;;;23.31;45.46;98890.06;2105806;28;19923;-75
2022/07/17 00:42:55;;;;;;;;;;;;;;;23.29;45.45;98881.34;2101574;28;19928;-76
2022/07/17 00:44:03;;;;;;;;;;;;;;;23.32;45.23;98889.00;2103837;28;19930;-75
2022/07/17 00:45:04;;;;;;;;;;;;;;;23.22;45.70;98887.91;2102296;28;19943;-75
2022/07/17 00:46:06;;;;;;;;;;;;;;;23.27;45.69;98891.56;2100858;28;20451;-75
2022/07/17 00:47:09;;;;;;;;;;;;;;;23.26;45.76;98889.09;2103337;28;19972;-75
2022/07/17 00:48:11;;;;;;;;;;;;;;;23.30;45.65;98893.81;2103478;28;20018;-76
2022/07/17 00:49:12;;;;;;;;;;;;;;;23.27;45.85;98888.88;2100154;28;19938;-75
2022/07/17 00:50:14;;;;;;;;;;;;;;;23.31;45.79;98889.22;2103810;28;20452;-75
2022/07/17 00:51:17;;;;;;;;;;;;;;;23.35;45.82;98887.72;2100776;28;20852;-74
2022/07/17 00:52:18;;;;;;;;;;;;;;;23.27;46.02;98883.47;2098188;28;19931;-74
2022/07/17 00:53:20;;;;;;;;;;;;;;;23.31;46.01;98890.06;2098637;28;20446;-75
2022/07/17 00:54:22;;;;;;;;;;;;;;;23.32;46.01;98889.00;2100727;28;20587;-74
2022/07/17 00:55:24;;;;;;;;;;;;;;;23.30;46.05;98893.00;2102581;28;19923;-75
2022/07/17 00:56:26;;;;;;;;;;;;;;;23.29;46.07;98885.91;2104559;28;20320;-75
2022/07/17 00:57:29;;;;;;;;;;;;;;;23.30;46.05;98888.41;2103368;28;19962;-75
2022/07/17 00:58:31;;;;;;;;;;;;;;;23.33;46.16;98887.94;2100156;28;19928;-75
2022/07/17 00:59:32;;;;;;;;;;;;;;;23.27;46.41;98896.16;2103918;28;20407;-75
2022/07/17 01:00:34;;;;;;;;;;;;;;;23.22;46.33;98886.00;2102563;28;20535;-75
2022/07/17 01:01:35;;;;;;;;;;;;;;;23.23;46.39;98887.66;2100773;28;21660;-75
2022/07/17 01:02:37;;;;;;;;;;;;;;;23.27;46.37;98883.47;2102272;28;19928;-75
2022/07/17 01:03:37;;;;;;;;;;;;;;;23.26;46.24;98886.38;2100137;28;19995;-75
2022/07/17 01:04:39;;;;;;;;;;;;;;;23.26;46.33;98881.78;2101625;28;19940;-74
2022/07/17 01:05:39;;;;;;;;;;;;;;;23.24;46.38;98883.91;2100138;28;20006;-75
2022/07/17 01:06:42;;;;;;;;;;;;;;;23.27;46.43;98886.16;2102693;28;19938;-75
2022/07/17 01:07:44;;;;;;;;;;;;;;;23.20;46.63;98877.28;2102893;28;19938;-75
2022/07/17 01:08:45;;;;;;;;;;;;;;;23.20;46.66;98885.41;2102521;28;20031;-75
2022/07/17 01:09:47;;;;;;;;;;;;;;;23.24;46.49;98885.81;2101664;28;20418;-75
2022/07/17 01:10:48;;;;;;;;;;;;;;;23.24;46.33;98877.69;2102183;28;20458;-74
2022/07/17 01:11:50;;;;;;;;;;;;;;;23.24;46.65;98881.22;2096085;28;19923;-75
2022/07/17 01:12:51;;;;;;;;;;;;;;;23.23;46.51;98876.84;2100171;28;20553;-75
2022/07/17 01:13:52;;;;;;;;;;;;;;;23.21;46.41;98878.97;2102135;28;20000;-75
2022/07/17 01:14:54;;;;;;;;;;;;;;;23.15;46.51;98885.25;2102223;28;19971;-74
2022/07/17 01:15:54;;;;;;;;;;;;;;;23.15;46.56;98878.00;2100865;28;19931;-75
2022/07/17 01:16:56;;;;;;;;;;;;;;;23.20;46.53;98877.28;2101079;28;20471;-74
2022/07/17 01:17:57;;;;;;;;;;;;;;;23.18;46.59;98882.13;2103140;28;19927;-75
2022/07/17 01:18:58;;;;;;;;;;;;;;;23.18;46.36;98879.41;2101622;28;19923;-74
2022/07/17 01:20:00;;;;;;;;;;;;;;;23.20;46.38;98877.28;2102800;28;19928;-75
2022/07/17 01:21:07;;;;;;;;;;;;;;;23.20;46.25;98877.28;2083926;27;19939;-75
2022/07/17 01:22:08;;;;;;;;;;;;;;;23.16;46.29;98879.63;2098704;28;20368;-75
2022/07/17 01:23:09;;;;;;;;;;;;;;;23.08;46.59;98879.94;2098243;28;20030;-74
2022/07/17 01:24:10;;;;;;;;;;;;;;;23.10;46.56;98877.03;2098193;28;19932;-74
2022/07/17 01:25:12;;;;;;;;;;;;;;;23.12;46.36;98883.00;2097311;28;20533;-74
2022/07/17 01:26:12;;;;;;;;;;;;;;;23.12;46.31;98880.31;2102828;28;19931;-74
2022/07/17 01:27:14;;;;;;;;;;;;;;;23.08;46.17;98879.13;2097048;28;19932;-74
2022/07/17 01:28:15;;;;;;;;;;;;;;;23.13;46.24;98879.28;2104290;28;19945;-75
2022/07/17 01:29:17;;;;;;;;;;;;;;;23.11;46.16;98882.19;2102756;28;19924;-75
2022/07/17 01:30:18;;;;;;;;;;;;;;;23.08;46.06;98879.13;2099777;28;20039;-75
2022/07/17 01:31:19;;;;;;;;;;;;;;;23.02;46.41;98886.25;2098425;28;19932;-74
2022/07/17 01:32:30;;;;;;;;;;;;;;;23.02;46.62;98877.31;2103775;28;19999;-74
2022/07/17 01:33:31;;;;;;;;;;;;;;;23.03;46.27;98881.69;2101668;28;20428;-75
2022/07/17 01:34:32;;;;;;;;;;;;;;;23.06;46.37;98883.91;2099959;28;19985;-74
2022/07/17 01:35:34;;;;;;;;;;;;;;;23.13;46.31;98887.38;2100345;28;19971;-74
2022/07/17 01:36:36;;;;;;;;;;;;;;;23.06;46.32;98886.63;2088877;28;20289;-74
2022/07/17 01:37:38;;;;;;;;;;;;;;;22.99;46.42;98886.72;2103637;28;20309;-74
2022/07/17 01:38:39;;;;;;;;;;;;;;;22.96;46.55;98885.28;2103434;28;19924;-77
2022/07/17 01:39:56;;;;;;;;;;;;;;;23.04;46.85;98883.31;2102348;28;20022;-75
2022/07/17 01:40:56;;;;;;;;;;;;;;;23.04;46.14;98891.44;2101306;28;19923;-74
2022/07/17 01:41:58;;;;;;;;;;;;;;;23.03;46.29;98892.50;2104798;28;20010;-74
2022/07/17 01:42:59;;;;;;;;;;;;;;;22.96;46.45;98888.00;2100065;28;20318;-75
2022/07/17 01:44:00;;;;;;;;;;;;;;;22.97;46.44;98891.53;2103028;28;19924;-75
2022/07/17 01:45:01;;;;;;;;;;;;;;;22.96;46.51;98895.28;2088017;27;20119;-75
2022/07/17 01:46:03;;;;;;;;;;;;;;;22.99;46.36;98894.00;2098017;28;20337;-75
2022/07/17 01:47:04;;;;;;;;;;;;;;;23.08;46.20;98900.75;2102215;28;19934;-76
2022/07/17 01:48:06;;;;;;;;;;;;;;;23.04;46.23;98902.25;2104898;28;20089;-75
2022/07/17 01:49:06;;;;;;;;;;;;;;;23.06;46.20;98903.69;2106110;28;19924;-75
2022/07/17 01:50:08;;;;;;;;;;;;;;;23.01;46.27;98902.72;2104707;28;19934;-75
2022/07/17 01:51:09;;;;;;;;;;;;;;;23.08;46.11;98909.69;2099002;28;19932;-76
2022/07/17 01:52:12;;;;;;;;;;;;;;;23.02;46.27;98901.69;2104952;28;19938;-75
2022/07/17 01:53:14;;;;;;;;;;;;;;;22.99;46.44;98899.44;2101548;28;19958;-76
2022/07/17 01:54:14;;;;;;;;;;;;;;;23.02;46.38;98907.09;2104944;28;19935;-75
2022/07/17 01:55:16;;;;;;;;;;;;;;;22.92;46.38;98902.97;2104122;28;19928;-74
2022/07/17 01:56:17;;;;;;;;;;;;;;;22.94;46.35;98895.47;2102337;28;19928;-75
2022/07/17 01:57:19;;;;;;;;;;;;;;;23.01;46.15;98903.53;2102206;28;19943;-76
2022/07/17 01:58:20;;;;;;;;;;;;;;;22.98;46.30;98898.56;2105338;28;19928;-76
2022/07/17 01:59:21;;;;;;;;;;;;;;;22.94;46.33;98898.19;2104142;28;20253;-75
2022/07/17 02:00:25;;;;;;;;;;;;;;;22.92;46.68;98902.97;2104518;28;19931;-75
2022/07/17 02:01:26;;;;;;;;;;;;;;;22.94;46.41;98905.47;2099663;28;20568;-75
2022/07/17 02:02:27;;;;;;;;;;;;;;;22.94;46.39;98905.47;2102175;28;20393;-75
2022/07/17 02:03:29;;;;;;;;;;;;;;;22.95;46.40;98907.09;2099893;28;19932;-76
2022/07/17 02:04:29;;;;;;;;;;;;;;;22.91;46.37;98904.03;2103977;28;20440;-75
2022/07/17 02:05:31;;;;;;;;;;;;;;;22.91;46.40;98904.03;2102433;28;19924;-76
2022/07/17 02:06:32;;;;;;;;;;;;;;;22.88;46.51;98899.09;2103139;28;21265;-75
2022/07/17 02:07:36;;;;;;;;;;;;;;;22.88;46.66;98904.50;2101857;28;19928;-75
2022/07/17 02:08:36;;;;;;;;;;;;;;;22.89;46.47;98908.84;2102641;28;20356;-76
2022/07/17 02:09:38;;;;;;;;;;;;;;;22.90;46.53;98906.94;2105208;28;19930;-76
2022/07/17 02:10:40;;;;;;;;;;;;;;;22.91;46.67;98906.75;2097993;28;19928;-75
2022/07/17 02:11:41;;;;;;;;;;;;;;;22.92;46.50;98907.56;2101644;28;19942;-76
2022/07/17 02:12:43;;;;;;;;;;;;;;;22.90;46.69;98902.41;2099898;28;19980;-75
2022/07/17 02:13:43;;;;;;;;;;;;;;;22.91;46.55;98898.63;2104235;28;19932;-76
2022/07/17 02:14:45;;;;;;;;;;;;;;;22.93;46.75;98901.13;2098102;28;20011;-75
2022/07/17 02:15:46;;;;;;;;;;;;;;;22.89;46.60;98902.59;2097507;28;19976;-75
2022/07/17 02:16:47;;;;;;;;;;;;;;;22.90;46.65;98902.41;2103615;28;20026;-76
2022/07/17 02:17:48;;;;;;;;;;;;;;;22.88;46.49;98909.09;2101605;28;19928;-76
2022/07/17 02:18:50;;;;;;;;;;;;;;;22.86;46.55;98908.47;2102643;28;20394;-76
2022/07/17 02:19:50;;;;;;;;;;;;;;;22.83;46.58;98904.34;2099320;28;19936;-74
2022/07/17 02:20:52;;;;;;;;;;;;;;;22.86;46.61;98897.66;2104863;28;19934;-76
2022/07/17 02:21:53;;;;;;;;;;;;;;;22.84;46.64;98899.75;2097748;28;19924;-76
2022/07/17 02:22:56;;;;;;;;;;;;;;;22.83;46.60;98904.34;2104605;28;20505;-76
2022/07/17 02:23:56;;;;;;;;;;;;;;;22.82;46.68;98905.41;2100939;28;19923;-75
2022/07/17 02:24:58;;;;;;;;;;;;;;;22.84;46.60;98897.84;2101585;28;20195;-76
2022/07/17 02:25:58;;;;;;;;;;;;;;;22.81;46.42;98897.50;2102080;28;20523;-76
2022/07/17 02:27:00;;;;;;;;;;;;;;;22.81;46.55;98906.44;2100022;28;19923;-75
2022/07/17 02:28:00;;;;;;;;;;;;;;;22.79;46.58;98902.28;2104483;28;19943;-75
2022/07/17 02:29:02;;;;;;;;;;;;;;;22.77;46.62;98899.81;2100175;28;19931;-76
2022/07/17 02:30:03;;;;;;;;;;;;;;;22.80;46.45;98898.56;2103796;28;20393;-76
2022/07/17 02:31:05;;;;;;;;;;;;;;;22.75;46.54;98897.34;2100483;28;20086;-76
2022/07/17 02:32:06;;;;;;;;;;;;;;;22.79;46.41;98891.47;2098540;28;20338;-76
2022/07/17 02:33:08;;;;;;;;;;;;;;;22.76;46.42;98890.03;2100838;28;20023;-76
2022/07/17 02:34:08;;;;;;;;;;;;;;;22.78;46.48;98890.66;2102238;28;19963;-76
2022/07/17 02:35:10;;;;;;;;;;;;;;;22.76;46.26;98892.75;2101650;28;21179;-73
2022/07/17 02:36:11;;;;;;;;;;;;;;;22.77;46.37;98889.00;2101800;28;19943;-75
2022/07/17 02:37:12;;;;;;;;;;;;;;;22.79;46.47;98886.06;2104020;28;20734;-76
2022/07/17 02:38:14;;;;;;;;;;;;;;;22.75;46.42;98891.94;2100200;28;19947;-76
2022/07/17 02:39:16;;;;;;;;;;;;;;;22.66;46.49;98892.47;2102357;28;20096;-76
2022/07/17 02:40:16;;;;;;;;;;;;;;;22.65;46.52;98891.63;2101485;28;19928;-77
2022/07/17 02:41:18;;;;;;;;;;;;;;;22.66;46.51;98889.75;2098989;28;19928;-76
2022/07/17 02:42:20;;;;;;;;;;;;;;;22.70;46.46;98888.25;2099649;28;19939;-76
2022/07/17 02:43:21;;;;;;;;;;;;;;;22.69;46.54;98892.00;2100677;28;19932;-75
2022/07/17 02:44:22;;;;;;;;;;;;;;;22.67;46.35;98880.59;2100131;28;19927;-76
2022/07/17 02:45:25;;;;;;;;;;;;;;;22.70;46.42;98891.78;2102819;28;21297;-76
2022/07/17 02:46:25;;;;;;;;;;;;;;;22.62;46.59;98893.94;2100641;28;21329;-76
2022/07/17 02:47:28;;;;;;;;;;;;;;;22.67;46.55;98888.69;2100764;28;20134;-74
2022/07/17 02:48:29;;;;;;;;;;;;;;;22.67;46.39;98888.69;2098144;28;19927;-74
2022/07/17 02:49:30;;;;;;;;;;;;;;;22.66;46.59;98887.06;2100513;28;19924;-74
2022/07/17 02:50:31;;;;;;;;;;;;;;;22.69;46.47;98890.13;2102212;28;19928;-74
2022/07/17 02:51:32;;;;;;;;;;;;;;;22.66;46.32;98885.16;2102153;28;19950;-76
2022/07/17 02:52:33;;;;;;;;;;;;;;;22.71;46.34;98895.31;2105985;28;19924;-74
2022/07/17 02:53:36;;;;;;;;;;;;;;;22.71;46.33;98895.31;2103035;28;19938;-74
2022/07/17 02:54:37;;;;;;;;;;;;;;;22.65;46.42;98893.50;2105246;28;19955;-74
2022/07/17 02:55:38;;;;;;;;;;;;;;;22.62;46.58;98897.50;2101371;28;19948;-75
2022/07/17 02:56:39;;;;;;;;;;;;;;;22.62;46.68;98894.78;2101260;28;19927;-74
2022/07/17 02:57:41;;;;;;;;;;;;;;;22.63;46.62;98896.44;2100713;28;20022;-74
2022/07/17 02:58:41;;;;;;;;;;;;;;;22.63;46.52;98892.91;2098583;28;20749;-74
2022/07/17 02:59:43;;;;;;;;;;;;;;;22.69;46.42;98902.81;2104921;28;20483;-74
2022/07/17 03:00:44;;;;;;;;;;;;;;;22.64;46.44;98900.78;2105252;28;19924;-74
2022/07/17 03:01:45;;;;;;;;;;;;;;;22.68;46.47;98891.19;2103036;28;19928;-74
2022/07/17 03:02:46;;;;;;;;;;;;;;;22.61;46.55;98895.00;2101957;28;19935;-75
2022/07/17 03:03:48;;;;;;;;;;;;;;;22.59;46.76;98891.69;2101005;28;21990;-74
2022/07/17 03:04:48;;;;;;;;;;;;;;;22.58;46.72;98893.56;2102056;28;19938;-75
2022/07/17 03:05:50;;;;;;;;;;;;;;;22.60;46.67;98896.06;2104136;28;19934;-74
2022/07/17 03:06:51;;;;;;;;;;;;;;;22.65;46.61;98896.19;2105075;28;19927;-75
2022/07/17 03:07:52;;;;;;;;;;;;;;;22.60;46.70;98901.47;2101702;28;19933;-74
2022/07/17 03:08:54;;;;;;;;;;;;;;;22.60;46.71;98893.38;2103930;28;20225;-75
2022/07/17 03:09:56;;;;;;;;;;;;;;;22.58;46.68;98895.44;2102016;28;21324;-74
2022/07/17 03:10:57;;;;;;;;;;;;;;;22.55;46.76;98898.59;2098063;28;20066;-75
2022/07/17 03:11:58;;;;;;;;;;;;;;;22.47;47.21;98891.59;2101229;28;20611;-74
2022/07/17 03:12:59;;;;;;;;;;;;;;;22.52;47.01;98897.16;2105942;28;19931;-74
2022/07/17 03:14:02;;;;;;;;;;;;;;;22.52;47.07;98892.59;2100030;28;20019;-74
2022/07/17 03:15:03;;;;;;;;;;;;;;;22.62;46.66;98896.66;2106534;28;20065;-75
2022/07/17 03:16:06;;;;;;;;;;;;;;;22.56;46.90;98897.53;2100509;28;19932;-74
2022/07/17 03:17:07;;;;;;;;;;;;;;;22.59;47.13;98897.09;2100883;28;20128;-74
2022/07/17 03:18:08;;;;;;;;;;;;;;;22.63;46.76;98898.31;2101219;28;20499;-74
2022/07/17 03:19:09;;;;;;;;;;;;;;;22.53;47.01;98899.63;2101994;28;20230;-74
2022/07/17 03:20:11;;;;;;;;;;;;;;;22.53;46.83;98896.94;2102331;28;19932;-75
2022/07/17 03:21:11;;;;;;;;;;;;;;;22.54;47.10;98903.19;2104004;28;19963;-75
2022/07/17 03:22:13;;;;;;;;;;;;;;;22.57;46.85;98907.31;2101436;28;19983;-74
2022/07/17 03:23:13;;;;;;;;;;;;;;;22.53;46.90;98902.34;2101871;28;20000;-74
2022/07/17 03:24:16;;;;;;;;;;;;;;;22.53;46.75;98904.22;2105024;28;19931;-74
2022/07/17 03:25:17;;;;;;;;;;;;;;;22.55;46.81;98906.72;2102160;28;19934;-74
2022/07/17 03:26:19;;;;;;;;;;;;;;;22.57;46.67;98899.22;2106685;28;19924;-75
2022/07/17 03:27:19;;;;;;;;;;;;;;;22.48;46.99;98901.34;2105873;28;19928;-74
2022/07/17 03:28:21;;;;;;;;;;;;;;;22.50;46.64;98907.38;2103001;28;20293;-74
2022/07/17 03:29:21;;;;;;;;;;;;;;;22.53;46.54;98901.50;2103226;28;20305;-74
2022/07/17 03:30:23;;;;;;;;;;;;;;;22.55;46.57;98906.72;2107464;28;19927;-74
2022/07/17 03:31:24;;;;;;;;;;;;;;;22.51;46.61;98909.88;2102923;28;19930;-74
2022/07/17 03:32:25;;;;;;;;;;;;;;;22.55;46.55;98901.31;2106750;28;19923;-74
2022/07/17 03:33:27;;;;;;;;;;;;;;;22.52;46.46;98905.28;2106757;28;19931;-74
2022/07/17 03:34:28;;;;;;;;;;;;;;;22.54;46.43;98908.59;2100573;28;20465;-74
2022/07/17 03:35:29;;;;;;;;;;;;;;;22.44;46.83;98905.56;2097297;28;20181;-74
2022/07/17 03:36:31;;;;;;;;;;;;;;;22.45;46.93;98907.22;2103571;28;19946;-74
2022/07/17 03:37:31;;;;;;;;;;;;;;;22.47;46.57;98903.22;2100104;28;20424;-75
2022/07/17 03:38:33;;;;;;;;;;;;;;;22.49;46.70;98903.03;2099141;28;20145;-74
2022/07/17 03:39:35;;;;;;;;;;;;;;;22.48;46.55;98907.59;2101314;28;19991;-75
2022/07/17 03:40:37;;;;;;;;;;;;;;;22.50;46.52;98910.91;2104230;28;19936;-75
2022/07/17 03:41:37;;;;;;;;;;;;;;;22.49;46.55;98913.84;2106563;28;20483;-74
2022/07/17 03:42:39;;;;;;;;;;;;;;;22.48;46.60;98918.41;2105961;28;19934;-73
2022/07/17 03:43:40;;;;;;;;;;;;;;;22.41;46.65;98914.13;2101483;28;19935;-74
2022/07/17 03:44:41;;;;;;;;;;;;;;;22.43;46.65;98920.13;2105826;28;19928;-74
2022/07/17 03:45:42;;;;;;;;;;;;;;;22.45;46.56;98918.00;2104404;28;19935;-74
2022/07/17 03:46:43;;;;;;;;;;;;;;;22.44;46.49;98916.38;2104181;28;20284;-74
2022/07/17 03:47:44;;;;;;;;;;;;;;;22.42;46.58;98923.88;2099448;28;19932;-74
2022/07/17 03:48:45;;;;;;;;;;;;;;;22.42;46.41;98930.09;2105407;28;19938;-74
2022/07/17 03:49:46;;;;;;;;;;;;;;;22.42;46.42;98913.06;2102700;28;19927;-75
2022/07/17 03:50:48;;;;;;;;;;;;;;;22.34;46.40;98916.84;2102386;28;20402;-74
2022/07/17 03:51:48;;;;;;;;;;;;;;;22.29;46.54;98922.94;2096801;28;19932;-75
2022/07/17 03:52:50;;;;;;;;;;;;;;;22.33;46.59;98925.19;2106945;28;19928;-74
2022/07/17 03:53:50;;;;;;;;;;;;;;;22.28;46.48;98918.56;2105722;28;19927;-75
2022/07/17 03:54:53;;;;;;;;;;;;;;;22.31;46.61;98917.31;2106664;28;19924;-75
2022/07/17 03:55:54;;;;;;;;;;;;;;;22.30;46.57;98921.06;2099773;28;19994;-74
2022/07/17 03:56:56;;;;;;;;;;;;;;;22.33;46.39;98926.03;2101119;28;20014;-74
2022/07/17 03:57:56;;;;;;;;;;;;;;;22.35;46.40;98918.53;2100004;28;19931;-74
2022/07/17 03:58:58;;;;;;;;;;;;;;;22.33;46.44;98922.50;2102733;28;20022;-74
2022/07/17 03:59:58;;;;;;;;;;;;;;;22.32;46.39;98921.69;2102021;28;21559;-74
2022/07/17 04:01:00;;;;;;;;;;;;;;;22.34;46.38;98921.44;2103906;27;20478;-74
2022/07/17 04:02:01;;;;;;;;;;;;;;;22.25;46.62;98929.00;2102507;28;20258;-76
2022/07/17 04:03:03;;;;;;;;;;;;;;;22.30;46.55;98923.78;2103773;28;19934;-76
2022/07/17 04:04:03;;;;;;;;;;;;;;;22.25;46.48;98924.41;2100912;28;20306;-75
2022/07/17 04:05:09;;;;;;;;;;;;;;;22.29;46.42;98924.81;2106941;28;19930;-76
2022/07/17 04:06:09;;;;;;;;;;;;;;;22.32;46.18;98927.09;2102419;28;21542;-74
2022/07/17 04:07:26;;;;;;;;;;;;;;;22.23;46.54;98931.09;2103512;28;19931;-75
2022/07/17 04:08:27;;;;;;;;;;;;;;;22.28;46.38;98925.84;2099981;28;19932;-76
2022/07/17 04:09:28;;;;;;;;;;;;;;;22.28;46.16;98929.38;2103258;28;19939;-76
2022/07/17 04:10:30;;;;;;;;;;;;;;;22.26;46.29;98931.50;2103192;28;20004;-75
2022/07/17 04:11:32;;;;;;;;;;;;;;;22.28;46.15;98933.97;2107012;28;19928;-76
2022/07/17 04:12:33;;;;;;;;;;;;;;;22.22;46.36;98927.56;2105206;28;19979;-75
2022/07/17 04:13:35;;;;;;;;;;;;;;;22.19;46.33;98930.72;2102445;28;19927;-75
2022/07/17 04:14:35;;;;;;;;;;;;;;;22.24;46.41;98930.88;2104112;28;19928;-75
2022/07/17 04:15:57;;;;;;;;;;;;;;;22.19;46.42;98930.72;2102932;28;20026;-74
2022/07/17 04:16:57;;;;;;;;;;;;;;;22.23;46.25;98936.50;2106352;28;19979;-75
2022/07/17 04:17:59;;;;;;;;;;;;;;;22.21;46.23;98936.72;2103467;28;20288;-74
2022/07/17 04:18:59;;;;;;;;;;;;;;;22.12;46.32;98931.75;2104372;28;20011;-77
2022/07/17 04:20:01;;;;;;;;;;;;;;;22.10;46.92;98937.41;2101223;28;20102;-75
2022/07/17 04:21:03;;;;;;;;;;;;;;;22.19;46.47;98938.81;2104873;28;19932;-74
2022/07/17 04:22:05;;;;;;;;;;;;;;;22.22;46.42;98932.16;2101957;28;19931;-76
2022/07/17 04:23:05;;;;;;;;;;;;;;;22.19;46.57;98927.19;2102545;28;19935;-75
2022/07/17 04:24:07;;;;;;;;;;;;;;;22.18;46.35;98934.47;2102070;28;20028;-74
2022/07/17 04:25:08;;;;;;;;;;;;;;;22.20;46.39;98931.53;2100414;28;19931;-75
2022/07/17 04:26:11;;;;;;;;;;;;;;;22.16;46.47;98933.81;2104004;28;20400;-74
2022/07/17 04:27:12;;;;;;;;;;;;;;;22.10;46.53;98932.00;2105225;28;19927;-75
2022/07/17 04:28:14;;;;;;;;;;;;;;;22.12;46.46;98931.75;2100346;28;20765;-75
2022/07/17 04:29:15;;;;;;;;;;;;;;;22.14;46.54;98932.38;2100090;28;20622;-74
2022/07/17 04:30:17;;;;;;;;;;;;;;;22.17;46.44;98927.34;2102311;28;19923;-74
2022/07/17 04:31:17;;;;;;;;;;;;;;;22.18;46.34;98928.25;2104917;28;19967;-74
2022/07/17 04:32:19;;;;;;;;;;;;;;;22.19;46.35;98924.47;2101683;28;19930;-74
2022/07/17 04:33:19;;;;;;;;;;;;;;;22.17;46.29;98929.25;2098984;28;19931;-74
2022/07/17 04:34:21;;;;;;;;;;;;;;;22.14;46.41;98935.91;2102132;28;20256;-74
2022/07/17 04:35:22;;;;;;;;;;;;;;;22.05;46.67;98934.53;2100950;28;19923;-74
2022/07/17 04:36:23;;;;;;;;;;;;;;;22.08;46.38;98932.22;2099135;28;19932;-75
2022/07/17 04:37:24;;;;;;;;;;;;;;;22.16;46.28;98933.00;2097580;28;19934;-74
2022/07/17 04:38:25;;;;;;;;;;;;;;;22.11;46.50;98930.94;2099557;28;20324;-74
2022/07/17 04:39:26;;;;;;;;;;;;;;;22.15;46.31;98932.19;2100177;28;19939;-74
2022/07/17 04:40:28;;;;;;;;;;;;;;;22.13;46.28;98938.84;2100384;28;19923;-74
2022/07/17 04:41:30;;;;;;;;;;;;;;;22.15;46.33;98934.88;2103201;28;19931;-74
2022/07/17 04:42:31;;;;;;;;;;;;;;;22.03;46.58;98937.44;2103336;28;21059;-75
2022/07/17 04:43:32;;;;;;;;;;;;;;;22.03;46.54;98934.72;2100890;28;19942;-74
2022/07/17 04:44:33;;;;;;;;;;;;;;;22.00;46.58;98935.16;2102739;28;19932;-75
2022/07/17 04:45:34;;;;;;;;;;;;;;;22.02;46.30;98935.78;2098938;28;19932;-74
2022/07/17 04:46:36;;;;;;;;;;;;;;;22.07;46.14;98937.84;2099752;28;19932;-74
2022/07/17 04:47:36;;;;;;;;;;;;;;;22.04;46.21;98939.09;2099655;28;20381;-74
2022/07/17 04:48:38;;;;;;;;;;;;;;;22.02;46.42;98940.38;2096830;28;19924;-74
2022/07/17 04:49:38;;;;;;;;;;;;;;;22.03;46.41;98936.63;2101430;28;19931;-74
2022/07/17 04:50:40;;;;;;;;;;;;;;;21.96;46.49;98939.38;2100277;28;19941;-74
2022/07/17 04:51:40;;;;;;;;;;;;;;;21.96;46.51;98943.94;2098750;28;19924;-74
2022/07/17 04:52:42;;;;;;;;;;;;;;;21.96;46.75;98950.19;2100379;28;19931;-74
2022/07/17 04:53:43;;;;;;;;;;;;;;;21.95;46.80;98948.50;2094601;28;19939;-75
2022/07/17 04:54:44;;;;;;;;;;;;;;;21.96;46.34;98946.66;2099288;28;20043;-75
2022/07/17 04:55:45;;;;;;;;;;;;;;;22.00;46.43;98945.16;2099266;28;20430;-75
2022/07/17 04:56:48;;;;;;;;;;;;;;;22.02;46.18;98943.91;2099456;28;19942;-74
2022/07/17 04:57:48;;;;;;;;;;;;;;;22.04;46.40;98949.09;2096433;28;20744;-73
2022/07/17 04:58:50;;;;;;;;;;;;;;;21.99;46.31;98951.63;2099883;28;19927;-75
2022/07/17 04:59:50;;;;;;;;;;;;;;;22.02;46.40;98952.00;2101788;28;20353;-74
2022/07/17 05:00:52;;;;;;;;;;;;;;;22.25;46.18;98950.63;2100502;28;20153;-74
2022/07/17 05:01:53;;;;;;;;;;;;;;;22.51;45.75;98955.81;2096021;28;19943;-74
2022/07/17 05:02:54;;;;;;;;;;;;;;;22.74;45.34;98951.66;2099458;28;19938;-74
2022/07/17 05:03:55;;;;;;;;;;;;;;;22.92;45.22;98951.66;2095199;28;19931;-74
2022/07/17 05:04:56;;;;;;;;;;;;;;;23.09;45.07;98954.63;2094461;28;19924;-75
2022/07/17 05:05:57;;;;;;;;;;;;;;;23.24;44.72;98954.28;2095931;28;19924;-74
2022/07/17 05:06:59;;;;;;;;;;;;;;;23.31;44.85;98949.59;2095534;28;20419;-74
2022/07/17 05:07:59;;;;;;;;;;;;;;;23.40;44.73;98953.66;2090158;28;20332;-74
2022/07/17 05:09:01;;;;;;;;;;;;;;;23.47;44.74;98953.56;2091926;28;20015;-75
2022/07/17 05:10:03;;;;;;;;;;;;;;;23.53;44.63;98951.84;2093081;28;19975;-74
2022/07/17 05:11:05;;;;;;;;;;;;;;;23.58;44.78;98955.50;2098607;28;19939;-74
2022/07/17 05:12:08;;;;;;;;;;;;;;;23.64;44.83;98949.16;2100293;28;19924;-74
2022/07/17 05:13:10;;;;;;;;;;;;;;;23.71;44.79;98961.81;2098339;28;20936;-74
2022/07/17 05:14:10;;;;;;;;;;;;;;;23.75;44.88;98952.19;2099650;28;19931;-74
2022/07/17 05:15:12;;;;;;;;;;;;;;;23.81;47.48;98959.41;2093822;28;21095;-74
2022/07/17 05:16:12;;;;;;;;;;;;;;;23.82;49.35;98961.03;2095593;28;20536;-74
2022/07/17 05:17:14;;;;;;;;;;;;;;;23.72;48.70;98960.78;2100440;28;19935;-73
2022/07/17 05:18:15;;;;;;;;;;;;;;;23.80;48.28;98955.06;2099159;28;20215;-74
2022/07/17 05:19:17;;;;;;;;;;;;;;;23.85;47.93;98955.19;2096556;28;19984;-74
2022/07/17 05:20:17;;;;;;;;;;;;;;;23.91;47.63;98965.09;2093261;28;19932;-75
2022/07/17 05:21:19;;;;;;;;;;;;;;;23.96;47.28;98953.56;2096110;28;19930;-74